Latest Weather Observations for Sydney Harbour

IDN60801

Issued at 7:52 pm EST Wednesday 12 August 2020 (issued every 10 minutes, with the page automatically refreshed every 10 minutes)

About weather observations | Map of weather stations | Latest weather observations for NSW | Other Formats
Station Details ID: 066196 Name: WEDDING CAKE WEST Lat: -33.84 Lon: 151.26 Height: 6.0 m
Data from the previous 72 hours. | See also: Recent months at Sydney Harbour
Date/Time
EST
Temp
°C
App
Temp
°C
Dew
Point
°C
Rel
Hum
%
Delta-T
°C
Wind Press
QNH
hPa
Press
MSL
hPa
Rain since
9am
mm
Dir  Spd
km/h
Gust
km/h
Spd
kts
Gust
kts
12/07:43pm 15.1 - - - - N 20 56 11 30 - - -
12/07:42pm 16.1 - - - - N 17 37 9 20 - - -
12/07:30pm 15.8 - - - - N 6 7 3 4 - - -
12/07:00pm 16.0 - - - - NNE 11 13 6 7 - - -
12/06:30pm 16.1 - - - - NE 13 15 7 8 - - -
12/06:00pm 16.2 - - - - N 11 17 6 9 - - -
12/05:30pm 16.2 - - - - NNE 17 20 9 11 - - -
12/05:00pm 16.3 - - - - NNE 17 20 9 11 - - -
12/04:30pm 16.3 - - - - NNE 19 20 10 11 - - -
12/04:00pm 16.5 - - - - NNE 17 20 9 11 - - -
12/03:30pm 16.7 - - - - NNE 17 19 9 10 - - -
12/03:00pm 16.7 - - - - NNE 15 19 8 10 - - -
12/02:30pm 16.8 - - - - NNE 13 17 7 9 - - -
12/02:00pm 17.7 - - - - NNW 15 17 8 9 - - -
12/01:30pm 16.8 - - - - N 15 20 8 11 - - -
12/01:00pm 17.6 - - - - N 15 20 8 11 - - -
12/12:30pm 16.2 - - - - N 17 20 9 11 - - -
12/12:00pm 16.0 - - - - NNE 19 22 10 12 - - -
12/11:30am 15.5 - - - - NE 13 20 7 11 - - -
12/11:00am 15.0 - - - - ENE 7 9 4 5 - - -
12/10:30am 15.0 - - - - SW 4 7 2 4 - - -
12/10:00am 14.8 - - - - NNW 6 9 3 5 - - -
12/09:30am 14.3 - - - - N 6 7 3 4 - - -
12/09:00am 13.9 - - - - N 7 7 4 4 - - -
12/08:30am 13.3 - - - - E 4 7 2 4 - - -
12/08:00am 12.5 - - - - WSW 6 7 3 4 - - -
12/07:30am 12.3 - - - - WSW 2 6 1 3 - - -
12/07:00am 12.2 - - - - CALM 0 0 0 0 - - -
12/06:30am 12.1 - - - - WSW 7 7 4 4 - - -
12/06:00am 12.3 - - - - WNW 9 13 5 7 - - -
12/05:30am 12.3 - - - - W 2 6 1 3 - - -
12/05:00am 12.4 - - - - WNW 6 7 3 4 - - -
12/04:30am 12.5 - - - - WSW 7 9 4 5 - - -
12/04:00am 12.2 - - - - SW 9 11 5 6 - - -
12/03:30am 12.0 - - - - WSW 11 13 6 7 - - -
12/03:00am 12.8 - - - - WSW 9 11 5 6 - - -
12/02:30am 12.7 - - - - WSW 9 11 5 6 - - -
12/02:00am 13.0 - - - - W 6 7 3 4 - - -
12/01:30am 13.3 - - - - W 2 7 1 4 - - -
12/01:00am 13.7 - - - - N 9 13 5 7 - - -
12/12:30am 13.6 - - - - N 11 13 6 7 - - -
12/12:00am 14.4 - - - - N 13 17 7 9 - - -
 
Date/Time
EST
Temp
°C
App
Temp
°C
Dew
Point
°C
Rel
Hum
%
Delta-T
°C
Wind Press
QNH
hPa
Press
MSL
hPa
Rain since
9am
mm
Dir  Spd
km/h
Gust
km/h
Spd
kts
Gust
kts
11/11:30pm 14.1 - - - - N 13 17 7 9 - - -
11/11:00pm 14.3 - - - - N 15 17 8 9 - - -
11/10:30pm 14.2 - - - - N 11 13 6 7 - - -
11/10:00pm 14.0 - - - - NNE 9 13 5 7 - - -
11/09:30pm 14.1 - - - - N 11 13 6 7 - - -
11/09:00pm 14.4 - - - - N 13 13 7 7 - - -
11/08:30pm 14.4 - - - - N 11 13 6 7 - - -
11/08:00pm 14.9 - - - - NNE 11 13 6 7 - - -
11/07:30pm 14.7 - - - - N 11 13 6 7 - - -
11/07:00pm 14.7 - - - - N 9 11 5 6 - - -
11/06:30pm 15.6 - - - - NE 13 13 7 7 - - -
11/06:00pm 15.5 - - - - NE 11 15 6 8 - - -
11/05:30pm 15.6 - - - - ENE 9 13 5 7 - - -
11/05:00pm 15.5 - - - - ENE 9 13 5 7 - - -
11/04:30pm 15.9 - - - - E 9 13 5 7 - - -
11/04:00pm 16.5 - - - - E 15 17 8 9 - - -
11/03:30pm 15.6 - - - - E 15 17 8 9 - - -
11/03:00pm 17.1 - - - - SE 6 7 3 4 - - -
11/02:30pm 15.7 - - - - ESE 13 17 7 9 - - -
11/02:00pm 16.0 - - - - SSE 6 9 3 5 - - -
11/01:30pm 15.8 - - - - S 9 9 5 5 - - -
11/01:00pm 15.4 - - - - SSW 13 15 7 8 - - -
11/12:30pm 15.3 - - - - SW 13 15 7 8 - - -
11/12:00pm 15.1 - - - - W 15 20 8 11 - - -
11/11:30am 14.5 - - - - WSW 15 17 8 9 - - -
11/11:00am 14.2 - - - - W 17 20 9 11 - - -
11/10:30am 13.6 - - - - W 15 17 8 9 - - -
11/10:00am 13.1 - - - - WSW 15 19 8 10 - - -
11/09:30am 12.6 - - - - W 22 26 12 14 - - -
11/09:00am 12.4 - - - - W 20 26 11 14 - - -
11/08:30am 11.9 - - - - WSW 17 20 9 11 - - -
11/08:00am 12.0 - - - - W 19 24 10 13 - - -
11/07:30am 11.9 - - - - W 20 24 11 13 - - -
11/07:00am 11.8 - - - - WSW 17 20 9 11 - - -
11/06:30am 12.0 - - - - W 20 24 11 13 - - -
11/06:00am 11.9 - - - - W 17 22 9 12 - - -
11/05:30am 11.8 - - - - W 20 24 11 13 - - -
11/05:00am 11.7 - - - - W 24 30 13 16 - - -
11/04:30am 11.8 - - - - W 20 28 11 15 - - -
11/04:00am 12.0 - - - - W 22 28 12 15 - - -
11/03:30am 12.1 - - - - W 20 24 11 13 - - -
11/03:00am 12.3 - - - - WSW 19 26 10 14 - - -
11/02:30am 12.0 - - - - WSW 24 32 13 17 - - -
11/02:00am 11.9 - - - - W 26 32 14 17 - - -
11/01:30am 11.9 - - - - W 22 26 12 14 - - -
11/01:00am 11.7 - - - - W 17 22 9 12 - - -
11/12:30am 11.5 - - - - W 15 17 8 9 - - -
11/12:00am 12.0 - - - - SW 13 20 7 11 - - -
 
Date/Time
EST
Temp
°C
App
Temp
°C
Dew
Point
°C
Rel
Hum
%
Delta-T
°C
Wind Press
QNH
hPa
Press
MSL
hPa
Rain since
9am
mm
Dir  Spd
km/h
Gust
km/h
Spd
kts
Gust
kts
10/11:30pm 11.7 - - - - W 20 28 11 15 - - -
10/11:00pm 12.1 - - - - W 19 26 10 14 - - -
10/10:30pm 12.0 - - - - WSW 17 28 9 15 - - -
10/10:00pm 12.2 - - - - WSW 24 37 13 20 - - -
10/09:30pm 13.1 - - - - SW 28 37 15 20 - - -
10/09:00pm 12.6 - - - - WSW 22 32 12 17 - - -
10/08:30pm 12.5 - - - - WSW 19 24 10 13 - - -
10/08:00pm 13.2 - - - - S 19 28 10 15 - - -
10/07:30pm 13.3 - - - - SW 28 32 15 17 - - -
10/07:00pm 14.0 - - - - SSW 28 35 15 19 - - -
10/06:30pm 14.2 - - - - SSW 32 46 17 25 - - -
10/06:00pm 15.1 - - - - SSW 32 41 17 22 - - -
10/05:30pm 15.1 - - - - S 33 50 18 27 - - -
10/05:00pm 15.2 - - - - S 33 44 18 24 - - -
10/04:30pm 15.2 - - - - S 37 48 20 26 - - -
10/04:00pm 15.3 - - - - S 41 50 22 27 - - -
10/03:34pm 15.3 - - - - S 43 61 23 33 - - -
10/03:30pm 15.4 - - - - S 48 61 26 33 - - -
10/03:00pm 15.2 - - - - S 43 59 23 32 - - -
10/02:58pm 15.3 - - - - S 41 59 22 32 - - -
10/02:30pm 15.5 - - - - S 46 59 25 32 - - -
10/02:00pm 15.1 - - - - S 46 61 25 33 - - -
10/01:30pm 15.2 - - - - S 46 59 25 32 - - -
10/01:00pm 15.3 - - - - S 50 61 27 33 - - -
10/12:46pm 15.0 - - - - S 50 69 27 37 - - -
10/12:30pm 15.4 - - - - S 46 61 25 33 - - -
10/12:00pm 14.9 - - - - S 48 69 26 37 - - -
10/11:51am 15.7 - - - - S 43 63 23 34 - - -
10/11:30am 15.4 - - - - S 44 57 24 31 - - -
10/11:00am 15.9 - - - - SSE 39 57 21 31 - - -
10/10:30am 15.7 - - - - S 43 63 23 34 - - -
10/10:09am 15.8 - - - - S 46 65 25 35 - - -
10/10:00am 15.9 - - - - S 46 61 25 33 - - -
10/09:30am 16.0 - - - - S 48 67 26 36 - - -
10/09:00am 15.8 - - - - S 44 65 24 35 - - -
10/08:40am 15.8 - - - - S 50 69 27 37 - - -
10/08:30am 15.8 - - - - SSE 48 65 26 35 - - -
10/08:00am 15.7 - - - - SSE 52 72 28 39 - - -
10/07:40am 15.3 - - - - S 43 69 23 37 - - -
10/07:30am 14.9 - - - - SSE 44 61 24 33 - - -
10/07:00am 14.4 - - - - SSE 43 65 23 35 - - -
10/06:44am 14.5 - - - - SSE 50 69 27 37 - - -
10/06:30am 15.4 - - - - SSE 48 63 26 34 - - -
10/06:01am 14.7 - - - - S 43 65 23 35 - - -
10/06:00am 14.7 - - - - SSE 43 59 23 32 - - -
10/05:32am 15.1 - - - - SSE 46 65 25 35 - - -
10/05:30am 15.1 - - - - SSE 48 65 26 35 - - -
10/05:18am 15.1 - - - - SSE 43 63 23 34 - - -
10/05:00am 15.5 - - - - SSE 44 59 24 32 - - -
10/04:30am 15.6 - - - - SSE 43 63 23 34 - - -
10/04:00am 15.6 - - - - SSE 46 67 25 36 - - -
10/03:30am 15.7 - - - - SSE 50 69 27 37 - - -
10/03:04am 15.5 - - - - SSE 50 70 27 38 - - -
10/03:00am 15.5 - - - - SSE 48 65 26 35 - - -
10/02:39am 15.3 - - - - SSE 44 63 24 34 - - -
10/02:30am 15.1 - - - - S 41 56 22 30 - - -
10/02:25am 15.1 - - - - SSE 37 56 20 30 - - -
10/02:00am 14.3 - - - - SSE 39 50 21 27 - - -
10/01:32am 14.9 - - - - SSE 41 59 22 32 - - -
10/01:30am 14.9 - - - - SSE 43 59 23 32 - - -
10/01:04am 15.2 - - - - SSE 41 61 22 33 - - -
10/01:00am 15.3 - - - - SSE 37 52 20 28 - - -
10/12:51am 15.2 - - - - SSE 35 54 19 29 - - -
10/12:30am 15.1 - - - - SSE 35 50 19 27 - - -
10/12:07am 14.8 - - - - SSE 35 54 19 29 - - -
10/12:00am 15.0 - - - - SSE 35 48 19 26 - - -
 
Date/Time
EST
Temp
°C
App
Temp
°C
Dew
Point
°C
Rel
Hum
%
Delta-T
°C
Wind Press
QNH
hPa
Press
MSL
hPa
Rain since
9am
mm
Dir  Spd
km/h
Gust
km/h
Spd
kts
Gust
kts
09/11:30pm 14.0 - - - - SSE 24 33 13 18 - - -
09/11:00pm 14.1 - - - - SE 22 28 12 15 - - -
09/10:30pm 13.7 - - - - SE 13 22 7 12 - - -
09/10:00pm 13.6 - - - - SE 20 26 11 14 - - -
09/09:30pm 13.5 - - - - SE 32 43 17 23 - - -
09/09:00pm 12.5 - - - - SE 28 37 15 20 - - -
09/08:30pm 11.6 - - - - E 17 22 9 12 - - -
09/08:00pm 11.3 - - - - NNE 19 57 10 31 - - -
09/07:59pm 11.4 - - - - NNE 15 57 8 31 - - -

Other formats

Comma delimited format used in spreadsheet applications
http://www.bom.gov.au/fwo/IDN60801/IDN60801.95766.axf

JavaScript Object Notation format (JSON) in row-major order
http://www.bom.gov.au/fwo/IDN60801/IDN60801.95766.json

Data quality

Most of these data are generated automatically and are frequently updated. Quality checks on data are not normally performed. It is possible for incorrect values to appear. Refer to information at About Latest Weather Observations and please check the disclaimer before using these data.